KMRN/MRN METAR and TAF weather

Enter ICAO airport designator
Station Type Date Time Source
KMRN METAR 2021/01/16 02:35 UTC NOAA

KMRN 160235Z AUTO 00000KT 7SM -RA SCT017 SCT026 SCT036 03/02 A2973 RMK AO2 P0003 T00300018


Station Type Date Time Source
KMRN Decoded METAR 2021/01/16 02:35 UTC NOAA

Morganton, Morganton-Lenoir Airport, NC, United States (KMRN) 35-49-17N 081-36-39W
Jan 15, 2021 - 09:35 PM EST / 2021.01.16 0235 UTC
Wind: Calm:0
Visibility: 7 mile(s):0
Sky conditions: partly cloudy
Weather: light rain
Precipitation last hour: 0.03 inches
Temperature: 37.4 F (3.0 C)
Dew Point: 35.2 F (1.8 C)
Relative Humidity: 91%
Pressure (altimeter): 29.73 in. Hg (1006 hPa)
ob: KMRN 160235Z AUTO 00000KT 7SM -RA SCT017 SCT026 SCT036 03/02 A2973 RMK AO2 P0003 T00300018
cycle: 2

Station Type Date Time Source
KMRN TAF UTC NOAA

Error!

Example: see airport list